createdAt,value
2018-06-22T00:04:52.035Z,11.30
2018-06-22T00:07:20.539Z,11.30
2018-06-22T00:09:49.346Z,11.30
2018-06-22T00:12:17.989Z,11.30
2018-06-22T00:14:46.757Z,11.30
2018-06-22T00:17:15.162Z,11.30
2018-06-22T00:19:43.597Z,11.30
2018-06-22T00:22:11.972Z,11.30
2018-06-22T00:24:40.343Z,11.20
2018-06-22T00:27:09.291Z,11.20
2018-06-22T00:29:37.712Z,11.20
2018-06-22T00:32:06.344Z,11.20
2018-06-22T00:34:34.769Z,11.20
2018-06-22T00:37:03.522Z,11.20
2018-06-22T00:39:32.017Z,11.20
2018-06-22T00:42:01.101Z,11.20
2018-06-22T00:44:29.480Z,11.20
2018-06-22T00:46:57.986Z,11.20
2018-06-22T00:51:55.068Z,11.10
2018-06-22T00:54:23.469Z,11.10
2018-06-22T00:56:51.931Z,11.10
2018-06-22T00:59:20.629Z,11.10
2018-06-22T01:01:49.372Z,11.10
2018-06-22T01:04:18.479Z,11.20
2018-06-22T01:06:46.930Z,11.20
2018-06-22T01:09:15.408Z,11.20
2018-06-22T01:11:43.900Z,11.20
2018-06-22T01:14:12.597Z,11.10
2018-06-22T01:16:41.021Z,11.10
2018-06-22T01:19:09.667Z,11.10
2018-06-22T01:21:38.101Z,11.10
2018-06-22T01:24:06.881Z,11.20
2018-06-22T01:26:36.171Z,11.20
2018-06-22T01:29:10.331Z,11.20
2018-06-22T01:31:38.701Z,11.20
2018-06-22T01:34:08.400Z,11.20
2018-06-22T01:36:36.802Z,11.20
2018-06-22T01:39:07.521Z,11.20
2018-06-22T01:41:35.931Z,11.20
2018-06-22T01:44:04.846Z,11.20
2018-06-22T01:46:33.600Z,11.10
2018-06-22T01:49:02.115Z,11.20
2018-06-22T01:51:30.529Z,11.20
2018-06-22T01:53:59.561Z,11.20
2018-06-22T01:56:27.922Z,11.20
2018-06-22T01:58:56.346Z,11.20
2018-06-22T02:01:24.712Z,11.20
2018-06-22T02:03:53.289Z,11.20
2018-06-22T02:06:21.676Z,11.20
2018-06-22T02:08:50.079Z,11.20
2018-06-22T02:11:18.468Z,11.20
2018-06-22T02:13:47.003Z,11.20
2018-06-22T02:16:15.893Z,11.10
2018-06-22T02:18:44.356Z,11.10
2018-06-22T02:21:12.760Z,11.10
2018-06-22T02:23:41.765Z,11.10
2018-06-22T02:26:10.521Z,11.00
2018-06-22T02:28:38.947Z,11.00
2018-06-22T02:31:07.664Z,11.00
2018-06-22T02:33:36.097Z,11.00
2018-06-22T02:36:04.542Z,11.00
2018-06-22T02:38:32.989Z,11.00
2018-06-22T02:43:29.896Z,11.00
2018-06-22T02:45:58.312Z,11.00
2018-06-22T02:48:26.667Z,11.10
2018-06-22T02:50:55.109Z,11.10
2018-06-22T02:53:23.487Z,11.10
2018-06-22T02:55:51.874Z,11.10
2018-06-22T02:58:20.248Z,11.10
2018-06-22T03:00:48.677Z,11.10
2018-06-22T03:03:17.073Z,11.10
2018-06-22T03:05:45.481Z,11.10
2018-06-22T03:08:13.847Z,11.10
2018-06-22T03:13:10.393Z,11.10
2018-06-22T03:15:38.834Z,11.10
2018-06-22T03:18:07.240Z,11.10
2018-06-22T03:20:35.677Z,11.10
2018-06-22T03:23:04.130Z,11.10
2018-06-22T03:25:32.580Z,11.10
2018-06-22T03:28:00.968Z,11.10
2018-06-22T03:30:29.372Z,11.10
2018-06-22T03:32:57.775Z,11.10
2018-06-22T03:35:26.208Z,11.10
2018-06-22T03:37:54.920Z,11.20
2018-06-22T03:40:23.373Z,11.20
2018-06-22T03:42:51.750Z,11.20
2018-06-22T03:45:20.182Z,11.20
2018-06-22T03:47:48.542Z,11.20
2018-06-22T03:52:45.048Z,11.30
2018-06-22T03:55:13.472Z,11.30
2018-06-22T04:00:09.966Z,11.30
2018-06-22T04:02:38.411Z,11.20
2018-06-22T04:07:34.917Z,11.20
2018-06-22T04:10:03.379Z,11.10
2018-06-22T04:12:31.805Z,11.10
2018-06-22T04:15:00.201Z,11.10
2018-06-22T04:17:28.618Z,11.10
2018-06-22T04:19:56.964Z,11.10
2018-06-22T04:24:53.496Z,11.10
2018-06-22T04:27:21.889Z,11.00
2018-06-22T04:29:50.308Z,11.00
2018-06-22T04:32:18.676Z,11.00
2018-06-22T04:34:47.024Z,11.00
2018-06-22T04:37:15.408Z,11.00
2018-06-22T04:39:43.768Z,11.00
2018-06-22T04:42:12.137Z,11.00
2018-06-22T04:44:40.492Z,10.90
2018-06-22T04:47:08.876Z,10.90
2018-06-22T04:49:37.244Z,10.90
2018-06-22T04:52:05.651Z,10.90
2018-06-22T04:54:33.995Z,10.90
2018-06-22T04:57:02.363Z,10.80
2018-06-22T04:59:30.707Z,10.80
2018-06-22T05:01:59.083Z,10.80
2018-06-22T05:04:27.425Z,10.90
2018-06-22T05:06:55.898Z,10.90
2018-06-22T05:09:24.281Z,10.90
2018-06-22T05:11:52.732Z,10.90
2018-06-22T05:19:17.315Z,10.80
2018-06-22T05:21:45.671Z,10.80
2018-06-22T05:24:14.037Z,10.80
2018-06-22T05:26:42.415Z,10.80
2018-06-22T05:29:10.811Z,10.80
2018-06-22T05:31:39.159Z,10.80
2018-06-22T05:34:08.584Z,10.80
2018-06-22T05:36:37.261Z,10.80
2018-06-22T05:39:08.124Z,10.90
2018-06-22T05:41:36.563Z,10.90
2018-06-22T05:44:04.949Z,10.90
2018-06-22T05:46:33.279Z,10.90
2018-06-22T05:49:01.723Z,10.90
2018-06-22T05:56:26.229Z,11.00
2018-06-22T05:58:54.688Z,11.00
2018-06-22T06:01:23.025Z,11.00
2018-06-22T06:03:51.427Z,10.90
2018-06-22T06:06:19.757Z,10.90
2018-06-22T06:13:44.370Z,10.80
2018-06-22T06:16:12.688Z,10.80
2018-06-22T06:18:41.052Z,10.80
2018-06-22T06:21:09.379Z,10.80
2018-06-22T06:23:37.726Z,10.80
2018-06-22T06:26:06.103Z,10.80
2018-06-22T06:28:34.465Z,10.90
2018-06-22T06:31:02.800Z,11.00
2018-06-22T06:33:31.169Z,11.10
2018-06-22T06:35:59.527Z,11.10
2018-06-22T06:38:27.888Z,11.10
2018-06-22T06:40:56.260Z,11.20
2018-06-22T06:45:52.671Z,11.20
2018-06-22T06:48:21.025Z,11.20
2018-06-22T06:50:49.365Z,11.20
2018-06-22T06:53:17.720Z,11.10
2018-06-22T06:55:46.068Z,11.10
2018-06-22T06:58:14.448Z,11.10
2018-06-22T07:00:42.780Z,11.20
2018-06-22T07:03:11.105Z,11.20
2018-06-22T07:05:39.472Z,11.20
2018-06-22T07:08:07.817Z,11.30
2018-06-22T07:15:36.680Z,11.50
2018-06-22T07:18:05.044Z,11.70
2018-06-22T07:20:33.398Z,11.90
2018-06-22T07:23:01.818Z,12.00
2018-06-22T07:25:30.268Z,12.10
2018-06-22T07:27:58.624Z,12.20
2018-06-22T07:30:26.982Z,12.30
2018-06-22T07:32:55.599Z,12.50
2018-06-22T07:37:52.128Z,12.70
2018-06-22T07:40:20.964Z,12.80
2018-06-22T07:42:49.320Z,12.90
2018-06-22T07:45:17.712Z,12.90
2018-06-22T07:47:46.041Z,12.90
2018-06-22T07:50:14.398Z,13.10
2018-06-22T07:52:42.741Z,13.30
2018-06-22T07:57:39.196Z,13.40
2018-06-22T08:02:35.679Z,13.60
2018-06-22T08:05:04.068Z,13.50
2018-06-22T08:07:32.399Z,13.30
2018-06-22T08:12:29.230Z,13.20
2018-06-22T08:14:57.588Z,13.10
2018-06-22T08:17:25.946Z,13.10
2018-06-22T08:19:54.314Z,13.00
2018-06-22T08:22:22.658Z,13.00
2018-06-22T08:24:51.013Z,12.90
2018-06-22T08:27:19.344Z,12.90
2018-06-22T08:32:15.768Z,13.00
2018-06-22T08:34:44.128Z,13.10
2018-06-22T08:37:12.478Z,13.30
2018-06-22T08:39:40.853Z,13.60
2018-06-22T08:42:09.206Z,13.70
2018-06-22T08:44:37.548Z,13.80
2018-06-22T08:47:05.956Z,13.90
2018-06-22T08:52:02.413Z,14.20
2018-06-22T08:54:30.756Z,14.30
2018-06-22T08:56:59.116Z,14.50
2018-06-22T08:59:27.460Z,14.60
2018-06-22T09:01:55.824Z,14.80
2018-06-22T09:04:24.164Z,15.10
2018-06-22T09:06:52.520Z,15.20
2018-06-22T09:09:20.869Z,15.20
2018-06-22T09:11:49.288Z,15.20
2018-06-22T09:14:17.633Z,15.30
2018-06-22T09:16:46.005Z,15.30
2018-06-22T09:19:14.352Z,15.20
2018-06-22T09:21:42.756Z,15.00
2018-06-22T09:24:11.076Z,15.10
2018-06-22T09:26:39.432Z,15.10
2018-06-22T09:31:36.064Z,15.30
2018-06-22T09:34:04.410Z,15.40
2018-06-22T09:36:32.868Z,15.30
2018-06-22T09:39:01.212Z,15.20
2018-06-22T09:41:29.570Z,15.10
2018-06-22T09:43:57.911Z,15.00
2018-06-22T09:46:26.271Z,15.00
2018-06-22T09:48:54.827Z,15.00
2018-06-22T09:51:23.181Z,15.10
2018-06-22T09:53:51.521Z,15.10
2018-06-22T09:56:19.888Z,15.30
2018-06-22T09:58:48.211Z,15.50
2018-06-22T10:01:16.577Z,15.80
2018-06-22T10:03:44.909Z,16.00
2018-06-22T10:06:13.283Z,16.20
2018-06-22T10:08:41.612Z,16.40
2018-06-22T10:11:09.976Z,16.60
2018-06-22T10:13:38.345Z,16.50
2018-06-22T10:16:06.716Z,16.40
2018-06-22T10:23:31.245Z,15.50
2018-06-22T10:28:27.690Z,15.20
2018-06-22T10:33:26.336Z,15.30
2018-06-22T10:35:54.696Z,15.60
2018-06-22T10:38:23.051Z,15.60
2018-06-22T10:40:51.439Z,15.60
2018-06-22T10:45:47.942Z,15.60
2018-06-22T10:48:16.290Z,15.60
2018-06-22T10:50:44.627Z,15.60
2018-06-22T10:53:13.032Z,15.70
2018-06-22T10:55:41.367Z,16.10
2018-06-22T10:58:09.776Z,16.50
2018-06-22T11:03:06.227Z,17.20
2018-06-22T11:05:34.560Z,17.20
2018-06-22T11:08:02.944Z,17.50
2018-06-22T11:10:31.307Z,17.60
2018-06-22T11:12:59.694Z,17.50
2018-06-22T11:15:28.019Z,17.30
2018-06-22T11:17:56.408Z,17.10
2018-06-22T11:20:24.855Z,16.90
2018-06-22T11:22:53.412Z,16.90
2018-06-22T11:25:22.776Z,17.10
2018-06-22T11:32:47.286Z,18.10
2018-06-22T11:35:15.621Z,18.00
2018-06-22T11:37:43.977Z,17.70
2018-06-22T11:40:12.325Z,17.20
2018-06-22T11:42:40.681Z,16.80
2018-06-22T11:45:09.031Z,16.60
2018-06-22T11:47:37.396Z,16.50
2018-06-22T11:50:05.788Z,16.30
2018-06-22T11:52:34.160Z,16.30
2018-06-22T11:55:02.488Z,16.40
2018-06-22T11:57:30.868Z,16.50
2018-06-22T11:59:59.569Z,16.70
2018-06-22T12:02:28.651Z,17.00
2018-06-22T12:04:56.994Z,17.30
2018-06-22T12:07:25.495Z,17.30
2018-06-22T12:09:55.028Z,17.40
2018-06-22T12:12:24.948Z,17.50
2018-06-22T12:14:54.740Z,17.50
2018-06-22T12:17:24.675Z,17.50
2018-06-22T12:19:54.302Z,17.60
2018-06-22T12:22:24.253Z,17.80
2018-06-22T12:24:52.592Z,17.80
2018-06-22T12:29:49.100Z,18.20
2018-06-22T12:32:17.486Z,18.50
2018-06-22T12:34:45.853Z,18.70
2018-06-22T12:37:14.190Z,18.90
2018-06-22T12:39:42.601Z,19.10
2018-06-22T12:42:10.912Z,19.20
2018-06-22T12:44:39.281Z,19.30
2018-06-22T12:47:07.621Z,19.30
2018-06-22T12:49:35.972Z,19.50
2018-06-22T12:54:32.437Z,19.60
2018-06-22T12:57:00.813Z,19.50
2018-06-22T13:01:57.252Z,19.10
2018-06-22T13:04:25.616Z,19.10
2018-06-22T13:06:53.960Z,19.10
2018-06-22T13:09:22.316Z,19.10
2018-06-22T13:11:50.689Z,19.00
2018-06-22T13:14:19.222Z,19.10
2018-06-22T13:16:47.567Z,19.20
2018-06-22T13:19:15.933Z,19.40
2018-06-22T13:21:49.854Z,19.50
2018-06-22T13:24:18.637Z,19.80
2018-06-22T13:26:47.048Z,20.20
2018-06-22T13:29:15.453Z,20.10
2018-06-22T13:31:43.964Z,19.80
2018-06-22T13:34:13.176Z,19.50
2018-06-22T13:36:41.516Z,19.20
2018-06-22T13:39:12.908Z,19.10
2018-06-22T13:41:41.763Z,19.10
2018-06-22T13:44:10.481Z,19.50
2018-06-22T13:46:39.656Z,20.00
2018-06-22T13:49:08.802Z,20.30
2018-06-22T13:51:37.753Z,20.50
2018-06-22T13:54:06.280Z,20.80
2018-06-22T13:56:35.228Z,21.00
2018-06-22T13:59:03.665Z,21.10
2018-06-22T14:01:33.099Z,21.40
2018-06-22T14:04:06.716Z,21.70
2018-06-22T14:09:11.610Z,22.00
2018-06-22T14:11:40.448Z,21.90
2018-06-22T14:14:08.823Z,21.60
2018-06-22T14:16:37.259Z,21.10
2018-06-22T14:19:05.836Z,20.60
2018-06-22T14:21:34.588Z,20.10
2018-06-22T14:24:02.957Z,19.90
2018-06-22T14:26:31.289Z,19.70
2018-06-22T14:28:59.748Z,19.40
2018-06-22T14:31:28.136Z,19.30
2018-06-22T14:33:56.481Z,19.50
2018-06-22T14:36:25.094Z,19.70
2018-06-22T14:38:53.748Z,19.80
2018-06-22T14:41:22.127Z,20.00
2018-06-22T14:43:50.488Z,19.90
2018-06-22T14:46:18.841Z,19.80
2018-06-22T14:48:47.206Z,20.10
2018-06-22T14:51:15.561Z,20.60
2018-06-22T14:56:22.890Z,20.80
2018-06-22T14:58:56.556Z,20.70
2018-06-22T15:01:30.313Z,20.80
2018-06-22T15:04:03.945Z,21.20
2018-06-22T15:06:37.743Z,21.60
2018-06-22T15:09:08.219Z,21.80
2018-06-22T15:11:36.719Z,21.80
2018-06-22T15:14:05.368Z,21.90
2018-06-22T15:16:33.735Z,21.80
2018-06-22T15:19:02.068Z,21.80
2018-06-22T15:21:30.429Z,21.40
2018-06-22T15:23:58.768Z,21.10
2018-06-22T15:26:27.154Z,20.90
2018-06-22T15:28:55.515Z,20.70
2018-06-22T15:31:23.893Z,20.60
2018-06-22T15:33:57.699Z,20.50
2018-06-22T15:36:31.524Z,20.50
2018-06-22T15:39:05.231Z,20.80
2018-06-22T15:41:39.080Z,21.30
2018-06-22T15:44:12.800Z,21.80
2018-06-22T15:46:46.645Z,22.10
2018-06-22T15:49:20.175Z,22.10
2018-06-22T15:51:53.843Z,22.20
2018-06-22T15:54:27.507Z,22.30
2018-06-22T15:56:55.871Z,22.20
2018-06-22T16:01:52.287Z,22.60
2018-06-22T16:04:20.619Z,22.60
2018-06-22T16:06:49.002Z,22.30
2018-06-22T16:09:17.344Z,22.00
2018-06-22T16:11:45.728Z,21.70
2018-06-22T16:16:52.943Z,20.40
2018-06-22T16:22:00.134Z,19.80
2018-06-22T16:24:33.993Z,19.80
2018-06-22T16:27:10.033Z,20.00
2018-06-22T16:29:38.378Z,20.30
2018-06-22T16:32:06.892Z,20.60
2018-06-22T16:37:03.298Z,20.60
2018-06-22T16:39:31.634Z,20.90
2018-06-22T16:41:59.995Z,20.90
2018-06-22T16:44:28.360Z,21.10
2018-06-22T16:49:24.776Z,21.40
2018-06-22T16:51:53.131Z,21.50
2018-06-22T16:54:21.460Z,21.60
2018-06-22T16:56:49.799Z,21.30
2018-06-22T16:59:18.124Z,21.50
2018-06-22T17:04:16.106Z,20.90
2018-06-22T17:06:49.992Z,20.80
2018-06-22T17:09:23.527Z,20.70
2018-06-22T17:11:57.196Z,20.80
2018-06-22T17:14:31.040Z,20.80
2018-06-22T17:19:33.008Z,20.30
2018-06-22T17:22:01.349Z,20.00
2018-06-22T17:24:29.713Z,19.90
2018-06-22T17:26:58.060Z,19.80
2018-06-22T17:31:54.515Z,20.20
2018-06-22T17:34:22.880Z,20.30
2018-06-22T17:39:19.351Z,19.80
2018-06-22T17:41:47.693Z,19.70
2018-06-22T17:44:16.052Z,19.50
2018-06-22T17:46:44.392Z,19.30
2018-06-22T17:49:12.757Z,19.00
2018-06-22T17:51:41.096Z,18.90
2018-06-22T17:54:09.452Z,19.30
2018-06-22T17:56:37.767Z,19.70
2018-06-22T17:59:11.663Z,20.00
2018-06-22T18:01:45.352Z,20.10
2018-06-22T18:05:23.150Z,19.90
2018-06-22T18:07:51.508Z,19.80
2018-06-22T18:10:25.323Z,19.50
2018-06-22T18:12:55.642Z,19.50
2018-06-22T18:15:23.937Z,19.30
2018-06-22T18:17:52.339Z,19.10
2018-06-22T18:20:20.781Z,18.80
2018-06-22T18:22:49.175Z,18.60
2018-06-22T18:25:17.479Z,18.60
2018-06-22T18:27:45.836Z,18.30
2018-06-22T18:30:15.381Z,18.20
2018-06-22T18:32:43.741Z,18.00
2018-06-22T18:35:13.504Z,17.90
2018-06-22T18:42:39.027Z,17.50
2018-06-22T18:45:08.871Z,17.30
2018-06-22T18:47:37.227Z,17.20
2018-06-22T18:50:05.832Z,17.10
2018-06-22T18:52:39.692Z,17.00
2018-06-22T18:55:13.439Z,16.90
2018-06-22T19:00:20.879Z,16.90
2018-06-22T19:02:54.452Z,16.90
2018-06-22T19:05:22.809Z,16.80
2018-06-22T19:07:51.131Z,16.70
2018-06-22T19:10:19.493Z,16.60
2018-06-22T19:12:47.875Z,16.60
2018-06-22T19:15:16.239Z,16.50
2018-06-22T19:20:12.647Z,16.30
2018-06-22T19:22:41.037Z,16.20
2018-06-22T19:25:09.403Z,16.20
2018-06-22T19:27:37.832Z,16.20
2018-06-22T19:32:34.644Z,16.00
2018-06-22T19:35:08.458Z,16.00
2018-06-22T19:37:36.797Z,15.90
2018-06-22T19:40:05.273Z,15.90
2018-06-22T19:42:33.598Z,15.80
2018-06-22T19:45:07.251Z,15.80
2018-06-22T19:50:14.456Z,15.70
2018-06-22T19:52:48.833Z,15.70
2018-06-22T19:55:17.155Z,15.60
2018-06-22T19:57:45.479Z,15.60
2018-06-22T20:00:13.836Z,15.50
2018-06-22T20:02:43.140Z,15.50
2018-06-22T20:05:11.557Z,15.50
2018-06-22T20:07:39.911Z,15.40
2018-06-22T20:10:08.595Z,15.30
2018-06-22T20:12:37.240Z,15.30
2018-06-22T20:17:33.732Z,15.30
2018-06-22T20:20:02.113Z,15.30
2018-06-22T20:22:30.539Z,15.30
2018-06-22T20:25:04.464Z,15.30
2018-06-22T20:27:32.864Z,15.20
2018-06-22T20:30:01.260Z,15.20
2018-06-22T20:32:29.633Z,15.20
2018-06-22T20:35:03.312Z,15.20
2018-06-22T20:37:36.983Z,15.10
2018-06-22T20:40:10.744Z,15.10
2018-06-22T20:42:44.559Z,15.10
2018-06-22T20:45:18.200Z,15.00
2018-06-22T20:47:51.815Z,15.00
2018-06-22T20:50:25.671Z,15.00
2018-06-22T20:52:54.064Z,14.90
2018-06-22T20:55:22.407Z,14.80
2018-06-22T20:57:50.792Z,14.80
2018-06-22T21:00:19.135Z,14.70
2018-06-22T21:02:47.540Z,14.70
2018-06-22T21:05:15.951Z,14.70
2018-06-22T21:07:44.347Z,14.70
2018-06-22T21:10:12.741Z,14.60
2018-06-22T21:12:41.116Z,14.60
2018-06-22T21:15:09.451Z,14.50
2018-06-22T21:17:37.796Z,14.40
2018-06-22T21:20:06.124Z,14.40
2018-06-22T21:22:34.486Z,14.40
2018-06-22T21:25:02.849Z,14.30
2018-06-22T21:30:11.065Z,14.20
2018-06-22T21:32:44.923Z,14.10
2018-06-22T21:35:18.480Z,14.00
2018-06-22T21:37:52.133Z,14.00
2018-06-22T21:40:20.467Z,14.00
2018-06-22T21:42:48.831Z,14.00
2018-06-22T21:45:17.289Z,14.00
2018-06-22T21:47:45.683Z,14.00
2018-06-22T21:50:14.016Z,13.90
2018-06-22T21:52:42.535Z,13.90
2018-06-22T21:55:11.002Z,13.80
2018-06-22T21:57:39.559Z,13.70
2018-06-22T22:00:09.786Z,13.70
2018-06-22T22:02:38.246Z,13.60
2018-06-22T22:07:34.710Z,13.50
2018-06-22T22:10:03.096Z,13.50
2018-06-22T22:12:31.479Z,13.40
2018-06-22T22:14:59.800Z,13.40
2018-06-22T22:17:28.147Z,13.40
2018-06-22T22:19:56.512Z,13.40
2018-06-22T22:22:24.868Z,13.40
2018-06-22T22:29:49.354Z,13.30
2018-06-22T22:32:17.707Z,13.30
2018-06-22T22:34:46.071Z,13.40
2018-06-22T22:37:14.413Z,13.40
2018-06-22T22:39:42.756Z,13.40
2018-06-22T22:42:11.107Z,13.40
2018-06-22T22:44:39.605Z,13.40
2018-06-22T22:47:08.242Z,13.40
2018-06-22T22:49:36.908Z,13.40
2018-06-22T22:52:05.423Z,13.40
2018-06-22T22:57:02.387Z,13.30
2018-06-22T22:59:31.103Z,13.30
2018-06-22T23:01:59.598Z,13.20
2018-06-22T23:04:28.311Z,13.20
2018-06-22T23:06:56.924Z,13.10
2018-06-22T23:11:53.770Z,13.10
2018-06-22T23:16:50.853Z,13.00
2018-06-22T23:19:19.232Z,13.00
2018-06-22T23:21:47.561Z,13.00
2018-06-22T23:24:15.908Z,13.00
2018-06-22T23:26:44.247Z,13.00
2018-06-22T23:29:12.610Z,13.00
2018-06-22T23:31:40.939Z,13.00
2018-06-22T23:34:09.301Z,13.00
2018-06-22T23:36:37.607Z,13.10
2018-06-22T23:39:08.454Z,13.10
2018-06-22T23:41:36.908Z,13.10
2018-06-22T23:46:33.345Z,13.00
2018-06-22T23:49:01.713Z,13.00
2018-06-22T23:51:30.064Z,13.00
2018-06-22T23:53:58.419Z,13.00
2018-06-22T23:56:26.796Z,13.00
2018-06-22T23:58:55.236Z,13.00
